Time;durP1;ratioP1;P1;durP2;ratioP2;P2;SDS_P1;SDS_P2;PMS_P1;PMS_P2;Temp;Humidity;BMP_temperature;BMP_pressure;BME280_temperature;BME280_humidity;BME280_pressure;Samples;Min_cycle;Max_cycle;Signal;HPM_P1;HPM_P2
2023/04/08 00:01:16;;;;;;;31.40;6.82;;;;;;;;;;4869200;29;20491;-65
2023/04/08 00:03:43;;;;;;;50.90;9.10;;;;;;;;;;4879438;29;20049;-65
2023/04/08 00:06:10;;;;;;;50.05;9.00;;;;;;;;;;4878107;29;20124;-64
2023/04/08 00:08:36;;;;;;;72.55;8.82;;;;;;;;;;4884040;29;20052;-66
2023/04/08 00:11:02;;;;;;;55.35;7.85;;;;;;;;;;4879744;29;20052;-65
2023/04/08 00:13:29;;;;;;;57.20;9.10;;;;;;;;;;4880278;29;20051;-64
2023/04/08 00:15:55;;;;;;;56.08;9.10;;;;;;;;;;4879664;29;20049;-65
2023/04/08 00:18:21;;;;;;;66.10;9.60;;;;;;;;;;4882127;29;20098;-65
2023/04/08 00:20:48;;;;;;;80.90;9.85;;;;;;;;;;4874291;29;20052;-65
2023/04/08 00:23:14;;;;;;;65.35;8.57;;;;;;;;;;4878175;29;20059;-65
2023/04/08 00:25:40;;;;;;;69.80;10.35;;;;;;;;;;4887938;29;21047;-66
2023/04/08 00:28:07;;;;;;;54.10;8.27;;;;;;;;;;4885299;29;20768;-65
2023/04/08 00:30:34;;;;;;;64.60;9.52;;;;;;;;;;4884468;29;20049;-65
2023/04/08 00:33:00;;;;;;;28.70;8.10;;;;;;;;;;4879884;29;20077;-66
2023/04/08 00:35:27;;;;;;;59.10;9.45;;;;;;;;;;4884559;29;20545;-66
2023/04/08 00:37:53;;;;;;;44.13;8.35;;;;;;;;;;4877126;29;20060;-66
2023/04/08 00:40:19;;;;;;;49.40;9.80;;;;;;;;;;4880419;29;20059;-66
2023/04/08 00:42:46;;;;;;;70.18;9.18;;;;;;;;;;4872505;29;20048;-65
2023/04/08 00:45:12;;;;;;;53.45;8.63;;;;;;;;;;4880338;29;20056;-65
2023/04/08 00:47:39;;;;;;;71.05;9.93;;;;;;;;;;4873073;29;20053;-66
2023/04/08 00:50:09;;;;;;;38.50;8.65;;;;;;;;;;4882148;29;20143;-66
2023/04/08 00:52:36;;;;;;;47.70;9.18;;;;;;;;;;4883755;29;20713;-65
2023/04/08 00:55:02;;;;;;;124.53;9.68;;;;;;;;;;4868483;29;20048;-65
2023/04/08 00:57:28;;;;;;;41.35;8.15;;;;;;;;;;4880792;29;20048;-64
2023/04/08 00:59:55;;;;;;;31.63;7.70;;;;;;;;;;4882807;29;20045;-65
2023/04/08 01:02:21;;;;;;;66.65;8.68;;;;;;;;;;4883175;29;20063;-66
2023/04/08 01:05:01;;;;;;;79.10;9.63;;;;;;;;;;4881858;29;20136;-64
2023/04/08 01:07:35;;;;;;;50.88;8.48;;;;;;;;;;4887054;29;20430;-65
2023/04/08 01:10:05;;;;;;;31.45;8.32;;;;;;;;;;4884460;29;20222;-65
2023/04/08 01:12:35;;;;;;;58.60;8.98;;;;;;;;;;4881275;29;20067;-64
2023/04/08 01:15:05;;;;;;;53.63;8.50;;;;;;;;;;4884444;29;20407;-64
2023/04/08 01:17:32;;;;;;;88.82;9.25;;;;;;;;;;4883192;29;20807;-64
2023/04/08 01:20:00;;;;;;;73.43;8.23;;;;;;;;;;4886612;29;20518;-65
2023/04/08 01:22:45;;;;;;;97.95;8.93;;;;;;;;;;4884264;29;20135;-65
2023/04/08 01:25:15;;;;;;;32.30;8.75;;;;;;;;;;4886226;29;20112;-64
2023/04/08 01:27:42;;;;;;;57.45;8.27;;;;;;;;;;4885897;29;20360;-64
2023/04/08 01:30:09;;;;;;;64.13;8.90;;;;;;;;;;4885790;29;20075;-65
2023/04/08 01:32:36;;;;;;;140.50;10.35;;;;;;;;;;4886130;29;20120;-64
2023/04/08 01:35:04;;;;;;;56.60;8.67;;;;;;;;;;4880549;29;20561;-64
2023/04/08 01:37:31;;;;;;;44.03;7.68;;;;;;;;;;4871883;29;20646;-64
2023/04/08 01:40:00;;;;;;;28.50;8.55;;;;;;;;;;4884215;29;20053;-65
2023/04/08 01:42:27;;;;;;;40.97;9.20;;;;;;;;;;4882143;29;20090;-64
2023/04/08 01:44:54;;;;;;;33.53;8.10;;;;;;;;;;4884645;29;20051;-66
2023/04/08 01:47:21;;;;;;;49.05;8.95;;;;;;;;;;4885341;29;20052;-64
2023/04/08 01:49:49;;;;;;;56.25;8.38;;;;;;;;;;4884632;29;20139;-64
2023/04/08 01:52:15;;;;;;;45.38;8.13;;;;;;;;;;4883771;29;20057;-65
2023/04/08 01:54:41;;;;;;;104.63;9.32;;;;;;;;;;4885803;29;20811;-64
2023/04/08 01:57:10;;;;;;;39.53;9.05;;;;;;;;;;4876340;29;20052;-65
2023/04/08 01:59:37;;;;;;;46.00;9.57;;;;;;;;;;4886340;29;20052;-65
2023/04/08 02:02:05;;;;;;;54.83;8.73;;;;;;;;;;4882291;29;20056;-65
2023/04/08 02:04:32;;;;;;;53.80;9.13;;;;;;;;;;4887122;29;20968;-64
2023/04/08 02:07:00;;;;;;;42.53;8.75;;;;;;;;;;4880756;29;20530;-65
2023/04/08 02:09:26;;;;;;;29.35;7.32;;;;;;;;;;4884932;29;20072;-64
2023/04/08 02:11:52;;;;;;;27.13;7.65;;;;;;;;;;4880128;29;20064;-64
2023/04/08 02:14:19;;;;;;;34.60;8.98;;;;;;;;;;4882895;29;20071;-64
2023/04/08 02:16:49;;;;;;;38.80;8.45;;;;;;;;;;4885953;29;20059;-64
2023/04/08 02:19:23;;;;;;;25.08;8.30;;;;;;;;;;4884828;29;20148;-65
2023/04/08 02:21:54;;;;;;;35.92;8.70;;;;;;;;;;4880589;29;20494;-65
2023/04/08 02:24:21;;;;;;;70.30;9.38;;;;;;;;;;4884579;29;20063;-65
2023/04/08 02:26:49;;;;;;;41.05;9.25;;;;;;;;;;4885990;29;20651;-65
2023/04/08 02:29:16;;;;;;;38.75;8.85;;;;;;;;;;4885258;29;20528;-68
2023/04/08 02:31:42;;;;;;;35.72;10.32;;;;;;;;;;4885920;29;20060;-67
2023/04/08 02:34:09;;;;;;;44.90;9.63;;;;;;;;;;4886919;29;20083;-68
2023/04/08 02:36:37;;;;;;;32.08;9.05;;;;;;;;;;4885550;29;20055;-68
2023/04/08 02:39:04;;;;;;;60.13;10.75;;;;;;;;;;4884622;29;20044;-68
2023/04/08 02:41:30;;;;;;;27.58;9.10;;;;;;;;;;4886055;29;20045;-68
2023/04/08 02:43:57;;;;;;;21.25;10.13;;;;;;;;;;4884742;29;20052;-68
2023/04/08 02:46:23;;;;;;;11.55;8.50;;;;;;;;;;4885519;29;20546;-67
2023/04/08 02:48:49;;;;;;;12.23;8.80;;;;;;;;;;4885022;29;20079;-67
2023/04/08 02:51:16;;;;;;;14.98;8.88;;;;;;;;;;4883210;29;20124;-67
2023/04/08 02:53:43;;;;;;;12.88;8.93;;;;;;;;;;4878010;29;20063;-68
2023/04/08 02:56:10;;;;;;;12.77;9.07;;;;;;;;;;4885677;29;20490;-69
2023/04/08 02:58:36;;;;;;;12.75;8.65;;;;;;;;;;4885778;29;20049;-67
2023/04/08 03:01:03;;;;;;;17.92;9.88;;;;;;;;;;4885664;29;20057;-68
2023/04/08 03:03:30;;;;;;;15.40;8.90;;;;;;;;;;4884473;29;20097;-68
2023/04/08 03:05:56;;;;;;;12.02;8.35;;;;;;;;;;4885642;29;20103;-68
2023/04/08 03:08:23;;;;;;;13.88;8.10;;;;;;;;;;4884410;29;20060;-68
2023/04/08 03:10:49;;;;;;;18.52;7.97;;;;;;;;;;4884660;29;20067;-69
2023/04/08 03:13:16;;;;;;;16.15;8.88;;;;;;;;;;4884133;29;20136;-67
2023/04/08 03:15:42;;;;;;;13.25;8.15;;;;;;;;;;4884686;29;20056;-68
2023/04/08 03:18:08;;;;;;;16.90;8.43;;;;;;;;;;4885624;29;20062;-68
2023/04/08 03:20:35;;;;;;;13.15;7.35;;;;;;;;;;4884526;29;20056;-67
2023/04/08 03:23:01;;;;;;;25.55;7.53;;;;;;;;;;4884880;29;20063;-68
2023/04/08 03:25:28;;;;;;;31.75;8.77;;;;;;;;;;4884549;29;20057;-68
2023/04/08 03:27:54;;;;;;;15.15;8.85;;;;;;;;;;4873490;29;20063;-68
2023/04/08 03:30:21;;;;;;;13.38;8.80;;;;;;;;;;4872258;29;20052;-67
2023/04/08 03:32:47;;;;;;;19.20;8.18;;;;;;;;;;4880860;29;20052;-68
2023/04/08 03:35:14;;;;;;;31.27;8.85;;;;;;;;;;4883183;29;20048;-67
2023/04/08 03:37:40;;;;;;;22.23;7.95;;;;;;;;;;4881415;29;20056;-68
2023/04/08 03:40:07;;;;;;;28.98;7.65;;;;;;;;;;4879367;29;20127;-67
2023/04/08 03:42:34;;;;;;;51.03;7.95;;;;;;;;;;4874441;29;20056;-68
2023/04/08 03:45:00;;;;;;;45.53;7.13;;;;;;;;;;4883409;29;20058;-67
2023/04/08 03:47:26;;;;;;;45.75;7.70;;;;;;;;;;4880405;29;20112;-68
2023/04/08 03:49:53;;;;;;;54.42;7.95;;;;;;;;;;4885113;29;20139;-68
2023/04/08 03:52:20;;;;;;;77.75;8.10;;;;;;;;;;4883685;29;20171;-68
2023/04/08 03:54:46;;;;;;;48.15;8.07;;;;;;;;;;4879668;29;20052;-67
2023/04/08 03:57:12;;;;;;;88.03;10.30;;;;;;;;;;4885522;29;20077;-68
2023/04/08 03:59:39;;;;;;;53.03;9.00;;;;;;;;;;4883172;29;20048;-67
2023/04/08 04:02:06;;;;;;;118.82;8.63;;;;;;;;;;4884364;29;20111;-67
2023/04/08 04:04:36;;;;;;;93.65;8.73;;;;;;;;;;4883879;29;20052;-68
2023/04/08 04:07:02;;;;;;;117.43;10.90;;;;;;;;;;4881802;29;20124;-69
2023/04/08 04:09:29;;;;;;;102.82;9.05;;;;;;;;;;4897828;29;20061;-68
2023/04/08 04:11:56;;;;;;;75.90;8.40;;;;;;;;;;4882498;29;20053;-69
2023/04/08 04:14:22;;;;;;;42.05;8.93;;;;;;;;;;4867268;29;20112;-70
2023/04/08 04:16:49;;;;;;;41.92;7.75;;;;;;;;;;4881198;29;20056;-68
2023/04/08 04:19:17;;;;;;;36.55;6.43;;;;;;;;;;4884682;29;20052;-69
2023/04/08 04:21:43;;;;;;;12.95;5.75;;;;;;;;;;4880678;29;20052;-67
2023/04/08 04:24:10;;;;;;;15.45;6.18;;;;;;;;;;4883073;29;20060;-69
2023/04/08 04:26:38;;;;;;;60.65;8.05;;;;;;;;;;4884860;29;20049;-69
2023/04/08 04:29:07;;;;;;;58.15;7.63;;;;;;;;;;4882469;29;20053;-68
2023/04/08 04:31:34;;;;;;;36.00;6.35;;;;;;;;;;4880397;29;20143;-69
2023/04/08 04:34:00;;;;;;;29.58;5.80;;;;;;;;;;4886555;29;20051;-68
2023/04/08 04:36:27;;;;;;;18.98;5.18;;;;;;;;;;4886851;29;20052;-69
2023/04/08 04:38:53;;;;;;;7.43;5.32;;;;;;;;;;4884210;29;20123;-71
2023/04/08 04:41:20;;;;;;;9.65;5.07;;;;;;;;;;4886855;29;20049;-68
2023/04/08 04:43:47;;;;;;;6.03;4.70;;;;;;;;;;4883317;29;20052;-69
2023/04/08 04:46:13;;;;;;;6.03;4.72;;;;;;;;;;4884074;29;20064;-68
2023/04/08 04:48:39;;;;;;;6.07;4.63;;;;;;;;;;4880512;29;20552;-68
2023/04/08 04:51:06;;;;;;;8.02;5.78;;;;;;;;;;4877828;29;20109;-68
2023/04/08 04:53:33;;;;;;;8.57;6.50;;;;;;;;;;4886931;29;20063;-68
2023/04/08 04:56:02;;;;;;;8.40;6.40;;;;;;;;;;4878617;29;20053;-67
2023/04/08 04:58:29;;;;;;;8.43;6.38;;;;;;;;;;4883370;29;20448;-69
2023/04/08 05:00:58;;;;;;;9.25;6.25;;;;;;;;;;4884259;29;20056;-69
2023/04/08 05:03:25;;;;;;;8.57;6.57;;;;;;;;;;4868614;29;20052;-69
2023/04/08 05:05:52;;;;;;;9.82;6.80;;;;;;;;;;4880256;29;20052;-68
2023/04/08 05:08:18;;;;;;;10.50;7.30;;;;;;;;;;4875220;29;20056;-68
2023/04/08 05:10:45;;;;;;;9.98;6.45;;;;;;;;;;4870481;29;20057;-66
2023/04/08 05:13:11;;;;;;;8.90;6.68;;;;;;;;;;4882391;29;20058;-68
2023/04/08 05:15:38;;;;;;;9.80;7.72;;;;;;;;;;4882835;29;20049;-68
2023/04/08 05:18:05;;;;;;;9.85;7.60;;;;;;;;;;4881364;29;20064;-68
2023/04/08 05:20:31;;;;;;;10.00;6.90;;;;;;;;;;4881915;29;20041;-68
2023/04/08 05:23:00;;;;;;;8.30;6.53;;;;;;;;;;4882553;29;20441;-69
2023/04/08 05:25:26;;;;;;;10.23;7.72;;;;;;;;;;4880896;29;20095;-69
2023/04/08 05:27:53;;;;;;;8.68;6.47;;;;;;;;;;4884270;29;20112;-68
2023/04/08 05:30:20;;;;;;;9.93;7.03;;;;;;;;;;4882444;29;20053;-68
2023/04/08 05:32:46;;;;;;;9.02;6.72;;;;;;;;;;4865666;29;20048;-69
2023/04/08 05:35:12;;;;;;;11.27;6.75;;;;;;;;;;4882142;29;20076;-69
2023/04/08 05:37:39;;;;;;;8.60;6.13;;;;;;;;;;4883780;29;20053;-69
2023/04/08 05:40:06;;;;;;;8.98;6.63;;;;;;;;;;4883139;29;20080;-69
2023/04/08 05:42:32;;;;;;;11.68;6.72;;;;;;;;;;4884448;29;20084;-68
2023/04/08 05:44:59;;;;;;;8.60;6.53;;;;;;;;;;4884298;29;20064;-68
2023/04/08 05:47:25;;;;;;;11.05;9.07;;;;;;;;;;4879711;29;20733;-67
2023/04/08 05:49:52;;;;;;;15.20;11.90;;;;;;;;;;4881052;29;20267;-69
2023/04/08 05:52:18;;;;;;;14.82;12.02;;;;;;;;;;4884182;29;20125;-69
2023/04/08 05:54:45;;;;;;;14.30;11.10;;;;;;;;;;4871584;29;20057;-68
2023/04/08 05:57:12;;;;;;;13.63;11.20;;;;;;;;;;4875593;29;20133;-69
2023/04/08 05:59:38;;;;;;;14.70;10.25;;;;;;;;;;4886725;29;20048;-69
2023/04/08 06:02:10;;;;;;;12.15;9.95;;;;;;;;;;4881888;29;20049;-69
2023/04/08 06:04:36;;;;;;;13.75;9.60;;;;;;;;;;4873917;29;20092;-67
2023/04/08 06:07:04;;;;;;;11.25;9.15;;;;;;;;;;4896187;29;20635;-67
2023/04/08 06:09:33;;;;;;;11.02;8.98;;;;;;;;;;4878497;29;20045;-68
2023/04/08 06:11:59;;;;;;;;;;;;;;;;;;4875451;29;20056;-69
2023/04/08 06:14:26;;;;;;;11.52;8.77;;;;;;;;;;4886248;29;20553;-67
2023/04/08 06:16:55;;;;;;;14.30;9.05;;;;;;;;;;4878803;29;20049;-68
2023/04/08 06:19:23;;;;;;;12.73;9.07;;;;;;;;;;4884530;29;20554;-68
2023/04/08 06:21:50;;;;;;;13.25;9.95;;;;;;;;;;4881113;29;20053;-69
2023/04/08 06:24:16;;;;;;;13.35;9.65;;;;;;;;;;4884080;29;20056;-68
2023/04/08 06:26:43;;;;;;;14.38;10.43;;;;;;;;;;4895759;29;20083;-67
2023/04/08 06:29:10;;;;;;;9.48;7.35;;;;;;;;;;4879577;29;20050;-68
2023/04/08 06:31:36;;;;;;;13.30;9.43;;;;;;;;;;4879387;29;20098;-68
2023/04/08 06:34:03;;;;;;;14.60;10.05;;;;;;;;;;4882585;29;20053;-68
2023/04/08 06:36:30;;;;;;;17.10;11.27;;;;;;;;;;4885333;29;20053;-68
2023/04/08 06:38:57;;;;;;;14.63;9.63;;;;;;;;;;4876399;29;20060;-69
2023/04/08 06:41:23;;;;;;;13.25;9.98;;;;;;;;;;4884247;29;20053;-67
2023/04/08 06:43:50;;;;;;;15.60;10.63;;;;;;;;;;4885839;29;20055;-68
2023/04/08 06:46:16;;;;;;;15.40;9.65;;;;;;;;;;4883160;29;20429;-67
2023/04/08 06:48:42;;;;;;;15.40;9.75;;;;;;;;;;4885956;29;20327;-67
2023/04/08 06:51:10;;;;;;;12.95;9.50;;;;;;;;;;4885598;29;20052;-68
2023/04/08 06:53:36;;;;;;;14.75;10.18;;;;;;;;;;4883528;29;20056;-68
2023/04/08 06:56:03;;;;;;;14.98;11.25;;;;;;;;;;4884862;29;20494;-68
2023/04/08 06:58:29;;;;;;;15.23;10.98;;;;;;;;;;4884750;29;20131;-69
2023/04/08 07:00:55;;;;;;;13.82;9.63;;;;;;;;;;4883136;29;20057;-68
2023/04/08 07:03:22;;;;;;;14.07;8.68;;;;;;;;;;4877411;29;20112;-69
2023/04/08 07:05:49;;;;;;;15.02;9.40;;;;;;;;;;4880342;29;20063;-70
2023/04/08 07:08:15;;;;;;;13.65;9.50;;;;;;;;;;4884194;29;20585;-69
2023/04/08 07:10:42;;;;;;;13.07;9.88;;;;;;;;;;4882879;29;20084;-68
2023/04/08 07:13:08;;;;;;;13.98;10.43;;;;;;;;;;4872670;29;20056;-67
2023/04/08 07:15:34;;;;;;;13.30;9.35;;;;;;;;;;4882415;29;20056;-68
2023/04/08 07:18:01;;;;;;;13.00;9.40;;;;;;;;;;4882400;29;20063;-69
2023/04/08 07:20:28;;;;;;;15.70;8.65;;;;;;;;;;4882977;29;20553;-67
2023/04/08 07:22:57;;;;;;;17.50;9.85;;;;;;;;;;4884871;29;20052;-68
2023/04/08 07:25:23;;;;;;;13.63;8.52;;;;;;;;;;4876996;29;20131;-68
2023/04/08 07:27:51;;;;;;;12.73;8.05;;;;;;;;;;4884875;29;20051;-68
2023/04/08 07:30:18;;;;;;;12.18;8.15;;;;;;;;;;4882559;29;20602;-69
2023/04/08 07:32:45;;;;;;;13.02;8.70;;;;;;;;;;4885557;29;20040;-68
2023/04/08 07:35:11;;;;;;;13.80;9.27;;;;;;;;;;4882280;29;20145;-68
2023/04/08 07:37:38;;;;;;;9.68;6.88;;;;;;;;;;4879701;29;20064;-68
2023/04/08 07:40:05;;;;;;;13.63;8.38;;;;;;;;;;4896062;29;20055;-68
2023/04/08 07:42:31;;;;;;;12.77;8.55;;;;;;;;;;4883977;29;20112;-66
2023/04/08 07:44:57;;;;;;;12.43;8.98;;;;;;;;;;4884487;29;20052;-67
2023/04/08 07:47:24;;;;;;;11.73;8.68;;;;;;;;;;4885248;29;20813;-67
2023/04/08 07:49:50;;;;;;;13.27;8.48;;;;;;;;;;4885897;29;20524;-68
2023/04/08 07:52:16;;;;;;;14.70;8.68;;;;;;;;;;4883191;29;20669;-67
2023/04/08 07:54:43;;;;;;;13.00;8.80;;;;;;;;;;4884756;29;20048;-68
2023/04/08 07:57:09;;;;;;;10.95;7.40;;;;;;;;;;4883016;29;20055;-68
2023/04/08 07:59:36;;;;;;;7.43;5.50;;;;;;;;;;4885486;29;20133;-67
2023/04/08 08:02:02;;;;;;;11.77;8.20;;;;;;;;;;4883848;29;20541;-67
2023/04/08 08:04:29;;;;;;;13.52;8.10;;;;;;;;;;4884677;29;20677;-67
2023/04/08 08:06:55;;;;;;;9.75;7.10;;;;;;;;;;4876701;29;20064;-70
2023/04/08 08:09:22;;;;;;;8.98;6.05;;;;;;;;;;4873183;29;20064;-68
2023/04/08 08:11:48;;;;;;;10.65;8.13;;;;;;;;;;4871117;29;20045;-68
2023/04/08 08:14:15;;;;;;;15.30;9.00;;;;;;;;;;4873135;29;20584;-68
2023/04/08 08:16:41;;;;;;;13.02;8.70;;;;;;;;;;4890456;29;20064;-68
2023/04/08 08:19:07;;;;;;;14.52;7.75;;;;;;;;;;4871662;29;20063;-68
2023/04/08 08:21:38;;;;;;;12.65;8.80;;;;;;;;;;4883515;29;20060;-69
2023/04/08 08:24:05;;;;;;;10.88;8.20;;;;;;;;;;4885111;29;20052;-68
2023/04/08 08:26:33;;;;;;;13.05;8.70;;;;;;;;;;4884599;29;20159;-67
2023/04/08 08:29:00;;;;;;;12.32;8.40;;;;;;;;;;4883631;29;20148;-68
2023/04/08 08:31:26;;;;;;;11.80;8.20;;;;;;;;;;4885889;29;20064;-68
2023/04/08 08:33:52;;;;;;;9.85;7.07;;;;;;;;;;4896384;29;20103;-67
2023/04/08 08:36:19;;;;;;;12.15;8.25;;;;;;;;;;4884031;29;20048;-68
2023/04/08 08:38:45;;;;;;;12.50;8.32;;;;;;;;;;4878391;29;20052;-69
2023/04/08 08:41:12;;;;;;;11.18;7.97;;;;;;;;;;4879855;29;20051;-69
2023/04/08 08:43:38;;;;;;;9.77;7.13;;;;;;;;;;4883977;29;20044;-69
2023/04/08 08:46:08;;;;;;;10.70;7.78;;;;;;;;;;4882101;29;20089;-71
2023/04/08 08:48:37;;;;;;;11.13;7.25;;;;;;;;;;4883297;29;20063;-68
2023/04/08 08:51:03;;;;;;;;;;;;;;;;;;4885822;29;20159;-66
2023/04/08 08:53:30;;;;;;;12.35;7.22;;;;;;;;;;4883240;29;20049;-68
2023/04/08 08:56:01;;;;;;;11.05;7.82;;;;;;;;;;4875198;29;20410;-68
2023/04/08 08:58:43;;;;;;;10.70;7.30;;;;;;;;;;4884134;29;20156;-69
2023/04/08 09:01:30;;;;;;;9.48;7.20;;;;;;;;;;4877492;29;20423;-68
2023/04/08 09:04:10;;;;;;;8.50;5.93;;;;;;;;;;4879987;29;20060;-68
2023/04/08 09:06:37;;;;;;;7.82;5.97;;;;;;;;;;4882136;29;20060;-68
2023/04/08 09:09:10;;;;;;;8.57;6.05;;;;;;;;;;4878313;29;20052;-69
2023/04/08 09:11:38;;;;;;;10.30;6.85;;;;;;;;;;4880804;29;20053;-67
2023/04/08 09:14:15;;;;;;;7.25;6.32;;;;;;;;;;4876992;29;20060;-70
2023/04/08 09:16:43;;;;;;;8.00;6.05;;;;;;;;;;4870802;29;20048;-69
2023/04/08 09:19:10;;;;;;;8.23;6.63;;;;;;;;;;4877726;29;20080;-69
2023/04/08 09:21:37;;;;;;;10.18;7.65;;;;;;;;;;4876052;29;20291;-68
2023/04/08 09:24:03;;;;;;;9.25;6.82;;;;;;;;;;4883645;29;20056;-69
2023/04/08 09:26:30;;;;;;;9.40;6.95;;;;;;;;;;4880212;29;20056;-68
2023/04/08 09:28:57;;;;;;;8.38;6.60;;;;;;;;;;4878298;29;20056;-70
2023/04/08 09:31:31;;;;;;;9.30;6.80;;;;;;;;;;4888451;29;20477;-68
2023/04/08 09:33:58;;;;;;;11.45;7.07;;;;;;;;;;4886266;29;21023;-68
2023/04/08 09:36:26;;;;;;;10.75;6.43;;;;;;;;;;4888703;29;20055;-70
2023/04/08 09:38:53;;;;;;;8.43;6.78;;;;;;;;;;4887045;29;20072;-70
2023/04/08 09:41:22;;;;;;;9.68;7.70;;;;;;;;;;4883568;29;20053;-70
2023/04/08 09:43:49;;;;;;;;;;;;;;;;;;4881803;29;20096;-68
2023/04/08 09:46:17;;;;;;;9.20;6.88;;;;;;;;;;4876960;29;19928;-71
2023/04/08 09:48:54;;;;;;;9.60;7.10;;;;;;;;;;4886642;29;20550;-70
2023/04/08 09:51:20;;;;;;;9.43;7.07;;;;;;;;;;4887864;29;20303;-69
2023/04/08 09:53:48;;;;;;;10.65;7.55;;;;;;;;;;4880687;29;20129;-69
2023/04/08 09:56:16;;;;;;;8.88;7.53;;;;;;;;;;4884929;29;20423;-68
2023/04/08 09:58:56;;;;;;;9.07;7.43;;;;;;;;;;4880268;29;20515;-70
2023/04/08 10:01:27;;;;;;;10.20;7.45;;;;;;;;;;4885368;29;20048;-70
2023/04/08 10:03:56;;;;;;;10.18;7.80;;;;;;;;;;4881132;29;20463;-70
2023/04/08 10:06:27;;;;;;;9.98;8.40;;;;;;;;;;4876325;29;20132;-68
2023/04/08 10:08:54;;;;;;;11.02;7.20;;;;;;;;;;4889768;29;20052;-70
2023/04/08 10:11:21;;;;;;;12.95;8.38;;;;;;;;;;4885870;29;20060;-70
2023/04/08 10:13:48;;;;;;;8.70;7.07;;;;;;;;;;4885464;29;20056;-71
2023/04/08 10:16:23;;;;;;;10.57;7.57;;;;;;;;;;4885706;29;20532;-70
2023/04/08 10:18:51;;;;;;;10.10;7.53;;;;;;;;;;4881675;29;20589;-70
2023/04/08 10:21:34;;;;;;;11.95;8.00;;;;;;;;;;4879431;29;20461;-66
2023/04/08 10:24:05;;;;;;;10.80;8.40;;;;;;;;;;4883870;29;20052;-69
2023/04/08 10:26:33;;;;;;;9.05;7.40;;;;;;;;;;4884427;29;20139;-68
2023/04/08 10:29:18;;;;;;;11.50;7.72;;;;;;;;;;4880524;29;20059;-68
2023/04/08 10:31:46;;;;;;;11.75;8.98;;;;;;;;;;4886185;29;20051;-69
2023/04/08 10:34:23;;;;;;;8.85;7.80;;;;;;;;;;4885235;29;20055;-72
2023/04/08 10:36:50;;;;;;;8.97;8.07;;;;;;;;;;4884512;29;20147;-70
2023/04/08 10:39:16;;;;;;;8.88;6.88;;;;;;;;;;4885591;29;20283;-70
2023/04/08 10:41:43;;;;;;;9.43;8.32;;;;;;;;;;4885997;29;20079;-70
2023/04/08 10:44:20;;;;;;;10.75;8.35;;;;;;;;;;4878915;29;20633;-70
2023/04/08 10:46:47;;;;;;;11.18;8.68;;;;;;;;;;4894528;29;20856;-70
2023/04/08 10:49:14;;;;;;;10.47;8.43;;;;;;;;;;4883688;29;20049;-70
2023/04/08 10:51:42;;;;;;;12.05;8.73;;;;;;;;;;4882816;29;20486;-70
2023/04/08 10:54:09;;;;;;;;;;;;;;;;;;4876734;29;20147;-70
2023/04/08 10:56:35;;;;;;;11.32;8.65;;;;;;;;;;4881543;29;19927;-70
2023/04/08 10:59:02;;;;;;;10.50;7.85;;;;;;;;;;4886095;29;20052;-68
2023/04/08 11:01:37;;;;;;;12.02;8.98;;;;;;;;;;4882164;29;20062;-70
2023/04/08 11:04:11;;;;;;;9.98;8.18;;;;;;;;;;4877955;29;20147;-69
2023/04/08 11:06:37;;;;;;;9.00;7.90;;;;;;;;;;4878922;29;20052;-68
2023/04/08 11:09:04;;;;;;;12.43;8.98;;;;;;;;;;4880506;29;20053;-70
2023/04/08 11:11:30;;;;;;;10.48;7.78;;;;;;;;;;4883051;29;20052;-70
2023/04/08 11:13:57;;;;;;;9.70;8.00;;;;;;;;;;4882920;29;20056;-70
2023/04/08 11:16:26;;;;;;;10.13;7.43;;;;;;;;;;4879881;29;20490;-69
2023/04/08 11:18:54;;;;;;;10.93;7.88;;;;;;;;;;4882359;29;20057;-69
2023/04/08 11:21:24;;;;;;;8.88;6.55;;;;;;;;;;4873531;29;20049;-70
2023/04/08 11:23:51;;;;;;;9.55;7.60;;;;;;;;;;4884376;29;20169;-69
2023/04/08 11:26:19;;;;;;;9.40;6.65;;;;;;;;;;4880841;29;20053;-69
2023/04/08 11:28:48;;;;;;;8.20;7.03;;;;;;;;;;4884344;29;20055;-69
2023/04/08 11:31:14;;;;;;;9.38;7.40;;;;;;;;;;4890678;29;20052;-69
2023/04/08 11:33:45;;;;;;;9.07;6.97;;;;;;;;;;4886891;29;20052;-70
2023/04/08 11:36:11;;;;;;;9.55;7.45;;;;;;;;;;4884370;29;20044;-70
2023/04/08 11:38:41;;;;;;;10.63;7.07;;;;;;;;;;4881466;29;20052;-70
2023/04/08 11:41:08;;;;;;;9.75;7.05;;;;;;;;;;4881633;29;20116;-68
2023/04/08 11:43:39;;;;;;;11.32;8.07;;;;;;;;;;4882256;29;20256;-69
2023/04/08 11:46:10;;;;;;;10.10;7.22;;;;;;;;;;4876946;29;20421;-68
2023/04/08 11:48:37;;;;;;;9.15;7.15;;;;;;;;;;4879024;29;20083;-68
2023/04/08 11:51:11;;;;;;;14.95;7.22;;;;;;;;;;4882487;29;20056;-69
2023/04/08 11:53:37;;;;;;;14.32;7.57;;;;;;;;;;4880252;29;20048;-69
2023/04/08 11:56:20;;;;;;;8.93;6.68;;;;;;;;;;4878657;29;20052;-69
2023/04/08 11:58:46;;;;;;;8.30;6.53;;;;;;;;;;4880187;29;20728;-69
2023/04/08 12:01:13;;;;;;;8.85;6.28;;;;;;;;;;4870901;29;20057;-69
2023/04/08 12:03:52;;;;;;;8.63;6.57;;;;;;;;;;4881039;29;20132;-68
2023/04/08 12:06:19;;;;;;;9.57;7.00;;;;;;;;;;4894829;29;20101;-68
2023/04/08 12:08:45;;;;;;;10.23;7.10;;;;;;;;;;4879724;29;20053;-68
2023/04/08 12:11:14;;;;;;;11.27;8.23;;;;;;;;;;4881845;29;20112;-71
2023/04/08 12:13:45;;;;;;;12.15;7.20;;;;;;;;;;4877799;29;20059;-69
2023/04/08 12:16:11;;;;;;;10.23;7.05;;;;;;;;;;4879740;29;20059;-70
2023/04/08 12:18:38;;;;;;;10.18;6.90;;;;;;;;;;4870925;29;20053;-70
2023/04/08 12:21:04;;;;;;;10.57;7.00;;;;;;;;;;4871670;29;20051;-70
2023/04/08 12:23:31;;;;;;;7.55;6.03;;;;;;;;;;4885410;29;20372;-69
2023/04/08 12:25:57;;;;;;;7.40;5.70;;;;;;;;;;4883617;29;20139;-69
2023/04/08 12:28:23;;;;;;;10.07;7.18;;;;;;;;;;4884531;29;20056;-68
2023/04/08 12:30:49;;;;;;;10.57;6.88;;;;;;;;;;4873368;29;20059;-68
2023/04/08 12:33:16;;;;;;;8.25;6.47;;;;;;;;;;4876141;29;20561;-69
2023/04/08 12:35:42;;;;;;;9.60;6.90;;;;;;;;;;4881992;29;20052;-70
2023/04/08 12:38:08;;;;;;;10.52;6.70;;;;;;;;;;4884024;29;20071;-69
2023/04/08 12:40:35;;;;;;;7.55;5.45;;;;;;;;;;4878034;29;20049;-69
2023/04/08 12:43:01;;;;;;;7.00;5.68;;;;;;;;;;4878590;29;20147;-69
2023/04/08 12:45:28;;;;;;;9.68;6.38;;;;;;;;;;4881696;29;20058;-70
2023/04/08 12:47:54;;;;;;;9.25;5.68;;;;;;;;;;4874888;29;20423;-69
2023/04/08 12:50:22;;;;;;;7.32;5.60;;;;;;;;;;4883799;29;20162;-69
2023/04/08 12:52:48;;;;;;;7.63;5.77;;;;;;;;;;4883263;29;20063;-68
2023/04/08 12:55:15;;;;;;;6.43;5.43;;;;;;;;;;4884243;29;20306;-69
2023/04/08 12:57:41;;;;;;;13.00;5.53;;;;;;;;;;4884331;29;20504;-69
2023/04/08 13:00:08;;;;;;;8.95;5.88;;;;;;;;;;4888466;29;20052;-69
2023/04/08 13:02:34;;;;;;;8.63;5.68;;;;;;;;;;4880978;29;20053;-69
2023/04/08 13:05:01;;;;;;;7.55;6.03;;;;;;;;;;4888289;29;20080;-69
2023/04/08 13:07:27;;;;;;;8.73;5.97;;;;;;;;;;4888436;29;20648;-69
2023/04/08 13:09:53;;;;;;;6.20;4.80;;;;;;;;;;4887864;29;20052;-68
2023/04/08 13:12:20;;;;;;;7.45;5.70;;;;;;;;;;4888103;29;20071;-70
2023/04/08 13:14:46;;;;;;;9.32;5.18;;;;;;;;;;4886827;29;20064;-69
2023/04/08 13:17:12;;;;;;;8.50;5.63;;;;;;;;;;4887194;29;20052;-69
2023/04/08 13:19:39;;;;;;;12.85;5.88;;;;;;;;;;4886731;29;20781;-69
2023/04/08 13:22:05;;;;;;;7.68;5.40;;;;;;;;;;4887355;29;20052;-69
2023/04/08 13:24:32;;;;;;;8.07;6.43;;;;;;;;;;4887120;29;20049;-69
2023/04/08 13:26:58;;;;;;;9.50;6.45;;;;;;;;;;4886301;29;20049;-70
2023/04/08 13:29:25;;;;;;;10.70;7.20;;;;;;;;;;4885450;29;20052;-70
2023/04/08 13:31:52;;;;;;;8.15;6.90;;;;;;;;;;4887232;29;20056;-69
2023/04/08 13:34:18;;;;;;;8.00;6.95;;;;;;;;;;4880883;29;20049;-70
2023/04/08 13:36:45;;;;;;;10.25;7.68;;;;;;;;;;4886262;29;20483;-69
2023/04/08 13:39:11;;;;;;;8.88;6.97;;;;;;;;;;4886727;29;20049;-69
2023/04/08 13:41:38;;;;;;;8.75;7.10;;;;;;;;;;4886964;29;20131;-70
2023/04/08 13:44:04;;;;;;;8.52;6.85;;;;;;;;;;4881159;29;20045;-69
2023/04/08 13:46:30;;;;;;;8.98;7.80;;;;;;;;;;4886620;29;20453;-70
2023/04/08 13:48:57;;;;;;;10.55;7.32;;;;;;;;;;4885494;29;20059;-69
2023/04/08 13:51:23;;;;;;;8.75;7.35;;;;;;;;;;4888258;29;20060;-69
2023/04/08 13:53:50;;;;;;;8.93;7.63;;;;;;;;;;4887468;29;20052;-69
2023/04/08 13:56:16;;;;;;;10.93;7.10;;;;;;;;;;4887225;29;20056;-71
2023/04/08 13:58:42;;;;;;;10.73;6.95;;;;;;;;;;4886889;29;20041;-70
2023/04/08 14:01:15;;;;;;;9.25;6.72;;;;;;;;;;4883659;29;20057;-69
2023/04/08 14:03:42;;;;;;;10.98;6.43;;;;;;;;;;4884333;29;20498;-71
2023/04/08 14:06:09;;;;;;;8.05;6.53;;;;;;;;;;4887477;29;20056;-71
2023/04/08 14:08:35;;;;;;;8.70;6.65;;;;;;;;;;4884574;29;20146;-71
2023/04/08 14:11:01;;;;;;;6.75;5.65;;;;;;;;;;4883520;29;20053;-70
2023/04/08 14:13:27;;;;;;;9.07;6.82;;;;;;;;;;4885170;29;20537;-70
2023/04/08 14:15:57;;;;;;;10.07;7.63;;;;;;;;;;4880769;29;20049;-70
2023/04/08 14:18:24;;;;;;;10.77;7.00;;;;;;;;;;4887354;29;20084;-70
2023/04/08 14:20:50;;;;;;;12.57;8.18;;;;;;;;;;4896020;29;20053;-69
2023/04/08 14:23:17;;;;;;;10.95;7.63;;;;;;;;;;4885421;29;20873;-69
2023/04/08 14:25:43;;;;;;;9.48;8.13;;;;;;;;;;4879721;29;20052;-70
2023/04/08 14:28:10;;;;;;;9.50;8.20;;;;;;;;;;4886503;29;20053;-69
2023/04/08 14:30:36;;;;;;;12.50;9.20;;;;;;;;;;4880480;29;20438;-68
2023/04/08 14:33:04;;;;;;;10.98;8.43;;;;;;;;;;4886577;29;20556;-70
2023/04/08 14:35:30;;;;;;;12.87;9.03;;;;;;;;;;4887235;29;20059;-69